sensor_id;sensor_type;location;lat;lon;timestamp;P1;durP1;ratioP1;P2;durP2;ratioP2
73951;SDS011;62304;47.662;18.324;2022-08-05T00:02:49;10.23;;;5.13;;
73951;SDS011;62304;47.662;18.324;2022-08-05T00:05:53;8.67;;;5.30;;
73951;SDS011;62304;47.662;18.324;2022-08-05T00:09:16;8.65;;;5.47;;
73951;SDS011;62304;47.662;18.324;2022-08-05T00:12:21;7.25;;;4.72;;
73951;SDS011;62304;47.662;18.324;2022-08-05T00:15:23;7.80;;;4.80;;
73951;SDS011;62304;47.662;18.324;2022-08-05T00:18:47;6.80;;;4.57;;
73951;SDS011;62304;47.662;18.324;2022-08-05T00:21:52;6.40;;;4.97;;
73951;SDS011;62304;47.662;18.324;2022-08-05T00:24:56;8.25;;;5.00;;
73951;SDS011;62304;47.662;18.324;2022-08-05T00:27:59;6.82;;;4.62;;
73951;SDS011;62304;47.662;18.324;2022-08-05T00:31:03;8.43;;;4.75;;
73951;SDS011;62304;47.662;18.324;2022-08-05T00:34:08;9.43;;;5.00;;
73951;SDS011;62304;47.662;18.324;2022-08-05T00:37:32;7.00;;;4.60;;
73951;SDS011;62304;47.662;18.324;2022-08-05T00:40:55;6.90;;;4.18;;
73951;SDS011;62304;47.662;18.324;2022-08-05T00:44:03;7.68;;;4.40;;
73951;SDS011;62304;47.662;18.324;2022-08-05T00:47:06;8.25;;;4.50;;
73951;SDS011;62304;47.662;18.324;2022-08-05T00:50:13;5.67;;;4.10;;
73951;SDS011;62304;47.662;18.324;2022-08-05T00:53:17;5.50;;;3.83;;
73951;SDS011;62304;47.662;18.324;2022-08-05T00:56:44;6.93;;;4.25;;
73951;SDS011;62304;47.662;18.324;2022-08-05T00:59:52;9.05;;;4.30;;
73951;SDS011;62304;47.662;18.324;2022-08-05T01:02:56;7.57;;;4.37;;
73951;SDS011;62304;47.662;18.324;2022-08-05T01:06:01;7.90;;;4.40;;
73951;SDS011;62304;47.662;18.324;2022-08-05T01:09:06;10.40;;;5.47;;
73951;SDS011;62304;47.662;18.324;2022-08-05T01:12:13;6.60;;;4.05;;
73951;SDS011;62304;47.662;18.324;2022-08-05T01:15:21;7.18;;;4.43;;
73951;SDS011;62304;47.662;18.324;2022-08-05T01:18:40;6.10;;;4.28;;
73951;SDS011;62304;47.662;18.324;2022-08-05T01:21:51;5.43;;;4.17;;
73951;SDS011;62304;47.662;18.324;2022-08-05T01:32:06;8.50;;;4.40;;
73951;SDS011;62304;47.662;18.324;2022-08-05T01:35:21;7.25;;;4.45;;
73951;SDS011;62304;47.662;18.324;2022-08-05T01:38:48;6.70;;;4.37;;
73951;SDS011;62304;47.662;18.324;2022-08-05T01:41:52;7.23;;;4.10;;
73951;SDS011;62304;47.662;18.324;2022-08-05T01:44:58;7.60;;;3.97;;
73951;SDS011;62304;47.662;18.324;2022-08-05T01:48:04;6.57;;;3.80;;
73951;SDS011;62304;47.662;18.324;2022-08-05T01:51:11;5.55;;;3.83;;
73951;SDS011;62304;47.662;18.324;2022-08-05T01:54:18;6.70;;;3.97;;
73951;SDS011;62304;47.662;18.324;2022-08-05T01:57:28;6.87;;;3.83;;
73951;SDS011;62304;47.662;18.324;2022-08-05T02:00:54;7.05;;;3.87;;
73951;SDS011;62304;47.662;18.324;2022-08-05T02:04:00;6.57;;;3.90;;
73951;SDS011;62304;47.662;18.324;2022-08-05T02:07:05;7.15;;;4.12;;
73951;SDS011;62304;47.662;18.324;2022-08-05T02:10:11;7.90;;;3.80;;
73951;SDS011;62304;47.662;18.324;2022-08-05T02:17:03;7.43;;;4.07;;
73951;SDS011;62304;47.662;18.324;2022-08-05T02:20:19;6.65;;;4.15;;
73951;SDS011;62304;47.662;18.324;2022-08-05T02:23:25;6.25;;;4.18;;
73951;SDS011;62304;47.662;18.324;2022-08-05T02:26:37;7.07;;;4.37;;
73951;SDS011;62304;47.662;18.324;2022-08-05T02:29:55;6.70;;;3.60;;
73951;SDS011;62304;47.662;18.324;2022-08-05T02:33:02;6.70;;;4.37;;
73951;SDS011;62304;47.662;18.324;2022-08-05T02:36:09;7.47;;;4.15;;
73951;SDS011;62304;47.662;18.324;2022-08-05T02:39:18;6.43;;;3.85;;
73951;SDS011;62304;47.662;18.324;2022-08-05T02:42:23;5.87;;;3.80;;
73951;SDS011;62304;47.662;18.324;2022-08-05T02:45:31;5.70;;;4.10;;
73951;SDS011;62304;47.662;18.324;2022-08-05T02:48:54;7.03;;;3.80;;
73951;SDS011;62304;47.662;18.324;2022-08-05T02:51:58;6.30;;;3.97;;
73951;SDS011;62304;47.662;18.324;2022-08-05T02:55:05;8.38;;;4.40;;
73951;SDS011;62304;47.662;18.324;2022-08-05T02:58:14;6.37;;;4.20;;
73951;SDS011;62304;47.662;18.324;2022-08-05T03:01:22;6.57;;;4.10;;
73951;SDS011;62304;47.662;18.324;2022-08-05T03:04:28;5.75;;;4.00;;
73951;SDS011;62304;47.662;18.324;2022-08-05T03:07:32;5.95;;;3.78;;
73951;SDS011;62304;47.662;18.324;2022-08-05T03:10:56;5.47;;;4.03;;
73951;SDS011;62304;47.662;18.324;2022-08-05T03:14:19;7.67;;;4.50;;
73951;SDS011;62304;47.662;18.324;2022-08-05T03:17:22;6.83;;;4.03;;
73951;SDS011;62304;47.662;18.324;2022-08-05T03:20:26;7.78;;;4.60;;
73951;SDS011;62304;47.662;18.324;2022-08-05T03:23:29;6.70;;;4.05;;
73951;SDS011;62304;47.662;18.324;2022-08-05T03:26:36;5.95;;;4.20;;
73951;SDS011;62304;47.662;18.324;2022-08-05T03:29:39;7.10;;;4.53;;
73951;SDS011;62304;47.662;18.324;2022-08-05T03:33:03;5.47;;;3.57;;
73951;SDS011;62304;47.662;18.324;2022-08-05T03:36:07;8.23;;;4.30;;
73951;SDS011;62304;47.662;18.324;2022-08-05T03:39:13;7.65;;;4.20;;
73951;SDS011;62304;47.662;18.324;2022-08-05T03:42:28;6.57;;;4.40;;
73951;SDS011;62304;47.662;18.324;2022-08-05T03:45:33;5.30;;;4.00;;
73951;SDS011;62304;47.662;18.324;2022-08-05T03:48:56;7.50;;;4.40;;
73951;SDS011;62304;47.662;18.324;2022-08-05T03:52:01;9.82;;;4.65;;
73951;SDS011;62304;47.662;18.324;2022-08-05T03:55:30;8.18;;;4.45;;
73951;SDS011;62304;47.662;18.324;2022-08-05T03:58:58;6.03;;;4.10;;
73951;SDS011;62304;47.662;18.324;2022-08-05T04:02:03;8.73;;;4.60;;
73951;SDS011;62304;47.662;18.324;2022-08-05T04:05:16;9.07;;;4.40;;
73951;SDS011;62304;47.662;18.324;2022-08-05T04:08:20;6.68;;;3.87;;
73951;SDS011;62304;47.662;18.324;2022-08-05T04:11:37;10.40;;;4.60;;
73951;SDS011;62304;47.662;18.324;2022-08-05T04:14:53;7.43;;;4.43;;
73951;SDS011;62304;47.662;18.324;2022-08-05T04:18:00;7.90;;;4.30;;
73951;SDS011;62304;47.662;18.324;2022-08-05T04:21:10;5.60;;;3.97;;
73951;SDS011;62304;47.662;18.324;2022-08-05T04:24:25;9.40;;;4.22;;
73951;SDS011;62304;47.662;18.324;2022-08-05T04:27:28;7.80;;;4.30;;
73951;SDS011;62304;47.662;18.324;2022-08-05T04:30:43;6.65;;;4.40;;
73951;SDS011;62304;47.662;18.324;2022-08-05T04:33:46;7.53;;;4.13;;
73951;SDS011;62304;47.662;18.324;2022-08-05T04:37:11;10.53;;;4.10;;
73951;SDS011;62304;47.662;18.324;2022-08-05T04:40:13;9.07;;;4.35;;
73951;SDS011;62304;47.662;18.324;2022-08-05T04:43:21;10.13;;;4.47;;
73951;SDS011;62304;47.662;18.324;2022-08-05T04:46:26;7.37;;;4.55;;
73951;SDS011;62304;47.662;18.324;2022-08-05T04:49:30;13.93;;;4.63;;
73951;SDS011;62304;47.662;18.324;2022-08-05T04:52:52;6.93;;;4.23;;
73951;SDS011;62304;47.662;18.324;2022-08-05T04:55:55;8.65;;;4.32;;
73951;SDS011;62304;47.662;18.324;2022-08-05T04:59:18;6.43;;;4.20;;
73951;SDS011;62304;47.662;18.324;2022-08-05T05:02:28;9.30;;;4.37;;
73951;SDS011;62304;47.662;18.324;2022-08-05T05:05:42;7.70;;;4.50;;
73951;SDS011;62304;47.662;18.324;2022-08-05T05:09:09;11.27;;;4.90;;
73951;SDS011;62304;47.662;18.324;2022-08-05T05:12:18;6.45;;;4.20;;
73951;SDS011;62304;47.662;18.324;2022-08-05T05:15:24;17.00;;;5.00;;
73951;SDS011;62304;47.662;18.324;2022-08-05T05:18:47;9.48;;;4.30;;
73951;SDS011;62304;47.662;18.324;2022-08-05T05:22:11;12.07;;;4.73;;
73951;SDS011;62304;47.662;18.324;2022-08-05T05:25:27;7.30;;;4.13;;
73951;SDS011;62304;47.662;18.324;2022-08-05T05:28:42;8.45;;;4.28;;
73951;SDS011;62304;47.662;18.324;2022-08-05T05:31:46;8.70;;;4.78;;
73951;SDS011;62304;47.662;18.324;2022-08-05T05:34:49;7.60;;;4.62;;
73951;SDS011;62304;47.662;18.324;2022-08-05T05:37:54;7.93;;;4.80;;
73951;SDS011;62304;47.662;18.324;2022-08-05T05:41:03;6.73;;;4.30;;
73951;SDS011;62304;47.662;18.324;2022-08-05T05:44:08;7.78;;;4.18;;
73951;SDS011;62304;47.662;18.324;2022-08-05T05:47:33;7.50;;;4.12;;
73951;SDS011;62304;47.662;18.324;2022-08-05T05:50:57;6.57;;;4.45;;
73951;SDS011;62304;47.662;18.324;2022-08-05T05:54:16;6.27;;;4.30;;
73951;SDS011;62304;47.662;18.324;2022-08-05T05:57:20;6.20;;;4.00;;
73951;SDS011;62304;47.662;18.324;2022-08-05T06:00:25;7.18;;;4.15;;
73951;SDS011;62304;47.662;18.324;2022-08-05T06:03:33;6.80;;;4.45;;
73951;SDS011;62304;47.662;18.324;2022-08-05T06:06:55;8.60;;;4.85;;
73951;SDS011;62304;47.662;18.324;2022-08-05T06:10:03;9.20;;;4.80;;
73951;SDS011;62304;47.662;18.324;2022-08-05T06:13:11;5.83;;;3.90;;
73951;SDS011;62304;47.662;18.324;2022-08-05T06:16:14;11.40;;;4.25;;
73951;SDS011;62304;47.662;18.324;2022-08-05T06:19:33;8.20;;;4.37;;
73951;SDS011;62304;47.662;18.324;2022-08-05T06:22:37;6.87;;;4.18;;
73951;SDS011;62304;47.662;18.324;2022-08-05T06:25:41;7.40;;;4.17;;
73951;SDS011;62304;47.662;18.324;2022-08-05T06:29:04;10.20;;;5.03;;
73951;SDS011;62304;47.662;18.324;2022-08-05T06:32:27;8.45;;;4.25;;
73951;SDS011;62304;47.662;18.324;2022-08-05T06:35:30;8.25;;;4.62;;
73951;SDS011;62304;47.662;18.324;2022-08-05T06:38:53;6.70;;;4.20;;
73951;SDS011;62304;47.662;18.324;2022-08-05T06:41:56;13.07;;;4.77;;
73951;SDS011;62304;47.662;18.324;2022-08-05T06:45:05;11.23;;;5.03;;
73951;SDS011;62304;47.662;18.324;2022-08-05T06:48:10;6.62;;;4.60;;
73951;SDS011;62304;47.662;18.324;2022-08-05T06:51:33;9.68;;;4.70;;
73951;SDS011;62304;47.662;18.324;2022-08-05T06:54:37;8.00;;;4.22;;
73951;SDS011;62304;47.662;18.324;2022-08-05T06:57:39;6.97;;;4.60;;
73951;SDS011;62304;47.662;18.324;2022-08-05T07:01:03;7.20;;;4.30;;
73951;SDS011;62304;47.662;18.324;2022-08-05T07:04:14;9.23;;;4.32;;
73951;SDS011;62304;47.662;18.324;2022-08-05T07:07:20;6.90;;;3.87;;
73951;SDS011;62304;47.662;18.324;2022-08-05T07:10:43;8.05;;;4.60;;
73951;SDS011;62304;47.662;18.324;2022-08-05T07:13:56;8.30;;;4.23;;
73951;SDS011;62304;47.662;18.324;2022-08-05T07:17:31;7.07;;;4.30;;
73951;SDS011;62304;47.662;18.324;2022-08-05T07:20:55;5.25;;;4.00;;
73951;SDS011;62304;47.662;18.324;2022-08-05T07:23:59;6.43;;;4.03;;
73951;SDS011;62304;47.662;18.324;2022-08-05T07:27:12;6.10;;;4.03;;
73951;SDS011;62304;47.662;18.324;2022-08-05T07:30:15;9.47;;;4.30;;
73951;SDS011;62304;47.662;18.324;2022-08-05T07:33:31;5.70;;;4.10;;
73951;SDS011;62304;47.662;18.324;2022-08-05T07:36:38;7.68;;;4.45;;
73951;SDS011;62304;47.662;18.324;2022-08-05T07:39:42;6.68;;;4.65;;
73951;SDS011;62304;47.662;18.324;2022-08-05T07:43:05;8.73;;;4.25;;
73951;SDS011;62304;47.662;18.324;2022-08-05T07:46:23;9.47;;;4.60;;
73951;SDS011;62304;47.662;18.324;2022-08-05T07:49:27;8.23;;;4.50;;
73951;SDS011;62304;47.662;18.324;2022-08-05T07:52:30;5.78;;;4.53;;
73951;SDS011;62304;47.662;18.324;2022-08-05T07:55:33;6.20;;;4.80;;
73951;SDS011;62304;47.662;18.324;2022-08-05T07:58:56;6.97;;;3.78;;
73951;SDS011;62304;47.662;18.324;2022-08-05T08:02:00;8.93;;;4.83;;
73951;SDS011;62304;47.662;18.324;2022-08-05T08:05:05;6.30;;;4.33;;
73951;SDS011;62304;47.662;18.324;2022-08-05T08:08:12;11.50;;;4.70;;
73951;SDS011;62304;47.662;18.324;2022-08-05T08:11:16;8.25;;;4.28;;
73951;SDS011;62304;47.662;18.324;2022-08-05T08:14:29;10.52;;;4.80;;
73951;SDS011;62304;47.662;18.324;2022-08-05T08:17:32;7.13;;;4.47;;
73951;SDS011;62304;47.662;18.324;2022-08-05T08:20:36;7.70;;;4.67;;
73951;SDS011;62304;47.662;18.324;2022-08-05T08:23:59;8.15;;;4.68;;
73951;SDS011;62304;47.662;18.324;2022-08-05T08:27:07;10.05;;;4.22;;
73951;SDS011;62304;47.662;18.324;2022-08-05T08:30:11;8.23;;;4.82;;
73951;SDS011;62304;47.662;18.324;2022-08-05T08:33:34;7.30;;;4.87;;
73951;SDS011;62304;47.662;18.324;2022-08-05T08:36:39;7.13;;;4.83;;
73951;SDS011;62304;47.662;18.324;2022-08-05T08:39:55;8.63;;;4.93;;
73951;SDS011;62304;47.662;18.324;2022-08-05T08:42:59;9.40;;;4.32;;
73951;SDS011;62304;47.662;18.324;2022-08-05T08:46:25;7.18;;;4.57;;
73951;SDS011;62304;47.662;18.324;2022-08-05T08:49:33;7.77;;;4.80;;
73951;SDS011;62304;47.662;18.324;2022-08-05T08:52:59;18.70;;;5.20;;
73951;SDS011;62304;47.662;18.324;2022-08-05T08:56:09;7.95;;;4.78;;
73951;SDS011;62304;47.662;18.324;2022-08-05T08:59:13;9.38;;;5.30;;
73951;SDS011;62304;47.662;18.324;2022-08-05T09:02:22;6.35;;;3.95;;
73951;SDS011;62304;47.662;18.324;2022-08-05T09:05:28;5.90;;;4.83;;
73951;SDS011;62304;47.662;18.324;2022-08-05T09:08:51;15.87;;;5.13;;
73951;SDS011;62304;47.662;18.324;2022-08-05T09:11:54;9.95;;;4.70;;
73951;SDS011;62304;47.662;18.324;2022-08-05T09:15:07;7.55;;;4.80;;
73951;SDS011;62304;47.662;18.324;2022-08-05T09:18:10;6.43;;;4.93;;
73951;SDS011;62304;47.662;18.324;2022-08-05T09:21:14;9.43;;;4.20;;
73951;SDS011;62304;47.662;18.324;2022-08-05T09:24:37;6.43;;;4.63;;
73951;SDS011;62304;47.662;18.324;2022-08-05T09:27:41;6.93;;;4.57;;
73951;SDS011;62304;47.662;18.324;2022-08-05T09:34:47;7.03;;;4.68;;
73951;SDS011;62304;47.662;18.324;2022-08-05T09:37:54;6.60;;;5.00;;
73951;SDS011;62304;47.662;18.324;2022-08-05T09:41:19;10.33;;;5.00;;
73951;SDS011;62304;47.662;18.324;2022-08-05T09:44:32;8.82;;;4.60;;
73951;SDS011;62304;47.662;18.324;2022-08-05T09:47:39;7.07;;;4.43;;
73951;SDS011;62304;47.662;18.324;2022-08-05T09:51:07;7.35;;;4.57;;
73951;SDS011;62304;47.662;18.324;2022-08-05T09:54:17;8.73;;;4.23;;
73951;SDS011;62304;47.662;18.324;2022-08-05T10:00:52;6.97;;;4.68;;
73951;SDS011;62304;47.662;18.324;2022-08-05T10:03:57;9.38;;;4.45;;
73951;SDS011;62304;47.662;18.324;2022-08-05T10:07:04;8.23;;;5.25;;
73951;SDS011;62304;47.662;18.324;2022-08-05T10:10:23;10.03;;;5.10;;
73951;SDS011;62304;47.662;18.324;2022-08-05T10:13:34;7.43;;;4.50;;
73951;SDS011;62304;47.662;18.324;2022-08-05T10:16:49;7.85;;;5.03;;
73951;SDS011;62304;47.662;18.324;2022-08-05T10:19:54;5.62;;;4.00;;
73951;SDS011;62304;47.662;18.324;2022-08-05T10:23:12;5.90;;;4.40;;
73951;SDS011;62304;47.662;18.324;2022-08-05T10:26:40;7.97;;;4.67;;
73951;SDS011;62304;47.662;18.324;2022-08-05T10:29:53;5.43;;;4.30;;
73951;SDS011;62304;47.662;18.324;2022-08-05T10:33:16;5.47;;;4.60;;
73951;SDS011;62304;47.662;18.324;2022-08-05T10:36:20;6.60;;;4.53;;
73951;SDS011;62304;47.662;18.324;2022-08-05T10:39:29;7.07;;;4.18;;
73951;SDS011;62304;47.662;18.324;2022-08-05T10:43:01;6.37;;;4.90;;
73951;SDS011;62304;47.662;18.324;2022-08-05T10:46:14;7.13;;;4.70;;
73951;SDS011;62304;47.662;18.324;2022-08-05T10:49:19;7.30;;;4.80;;
73951;SDS011;62304;47.662;18.324;2022-08-05T10:52:41;5.25;;;4.20;;
73951;SDS011;62304;47.662;18.324;2022-08-05T10:56:01;7.10;;;4.25;;
73951;SDS011;62304;47.662;18.324;2022-08-05T10:59:29;6.50;;;4.50;;
73951;SDS011;62304;47.662;18.324;2022-08-05T11:06:25;6.47;;;4.37;;
73951;SDS011;62304;47.662;18.324;2022-08-05T11:12:48;6.32;;;4.00;;
73951;SDS011;62304;47.662;18.324;2022-08-05T11:16:19;6.63;;;3.83;;
73951;SDS011;62304;47.662;18.324;2022-08-05T11:19:37;6.80;;;4.07;;
73951;SDS011;62304;47.662;18.324;2022-08-05T11:34:03;5.37;;;3.97;;
73951;SDS011;62304;47.662;18.324;2022-08-05T11:37:09;6.83;;;4.10;;
73951;SDS011;62304;47.662;18.324;2022-08-05T11:44:23;5.62;;;3.87;;
73951;SDS011;62304;47.662;18.324;2022-08-05T11:47:55;8.57;;;4.20;;
73951;SDS011;62304;47.662;18.324;2022-08-05T11:51:00;4.93;;;4.23;;
73951;SDS011;62304;47.662;18.324;2022-08-05T11:54:03;4.37;;;3.60;;
73951;SDS011;62304;47.662;18.324;2022-08-05T11:57:06;4.82;;;4.30;;
73951;SDS011;62304;47.662;18.324;2022-08-05T12:00:27;4.80;;;3.90;;
73951;SDS011;62304;47.662;18.324;2022-08-05T12:03:42;8.52;;;3.70;;
73951;SDS011;62304;47.662;18.324;2022-08-05T12:07:00;5.10;;;3.73;;
73951;SDS011;62304;47.662;18.324;2022-08-05T12:10:03;5.43;;;4.37;;
73951;SDS011;62304;47.662;18.324;2022-08-05T12:13:15;4.87;;;4.37;;
73951;SDS011;62304;47.662;18.324;2022-08-05T12:16:40;6.18;;;4.05;;
73951;SDS011;62304;47.662;18.324;2022-08-05T12:19:48;10.32;;;4.57;;
73951;SDS011;62304;47.662;18.324;2022-08-05T12:23:13;6.83;;;4.43;;
73951;SDS011;62304;47.662;18.324;2022-08-05T12:26:15;6.63;;;4.20;;
73951;SDS011;62304;47.662;18.324;2022-08-05T12:29:19;8.48;;;4.47;;
73951;SDS011;62304;47.662;18.324;2022-08-05T12:32:24;7.47;;;4.40;;
73951;SDS011;62304;47.662;18.324;2022-08-05T12:35:27;6.25;;;4.10;;
73951;SDS011;62304;47.662;18.324;2022-08-05T12:38:40;4.77;;;4.23;;
73951;SDS011;62304;47.662;18.324;2022-08-05T12:41:44;5.00;;;3.93;;
73951;SDS011;62304;47.662;18.324;2022-08-05T12:44:49;5.85;;;4.43;;
73951;SDS011;62304;47.662;18.324;2022-08-05T12:47:52;6.57;;;4.25;;
73951;SDS011;62304;47.662;18.324;2022-08-05T12:51:16;7.90;;;4.25;;
73951;SDS011;62304;47.662;18.324;2022-08-05T12:54:40;8.53;;;4.33;;
73951;SDS011;62304;47.662;18.324;2022-08-05T12:57:45;4.93;;;3.77;;
73951;SDS011;62304;47.662;18.324;2022-08-05T13:01:08;6.10;;;4.15;;
73951;SDS011;62304;47.662;18.324;2022-08-05T13:04:32;6.35;;;4.28;;
73951;SDS011;62304;47.662;18.324;2022-08-05T13:07:56;5.22;;;3.90;;
73951;SDS011;62304;47.662;18.324;2022-08-05T13:11:01;7.60;;;3.80;;
73951;SDS011;62304;47.662;18.324;2022-08-05T13:14:09;7.67;;;3.83;;
73951;SDS011;62304;47.662;18.324;2022-08-05T13:17:37;5.03;;;4.35;;
73951;SDS011;62304;47.662;18.324;2022-08-05T13:20:43;8.63;;;4.20;;
73951;SDS011;62304;47.662;18.324;2022-08-05T13:23:47;5.82;;;4.20;;
73951;SDS011;62304;47.662;18.324;2022-08-05T13:26:53;6.67;;;4.50;;
73951;SDS011;62304;47.662;18.324;2022-08-05T13:29:56;6.63;;;4.33;;
73951;SDS011;62304;47.662;18.324;2022-08-05T13:33:20;5.55;;;3.65;;
73951;SDS011;62304;47.662;18.324;2022-08-05T13:36:43;8.68;;;4.22;;
73951;SDS011;62304;47.662;18.324;2022-08-05T13:39:47;5.57;;;4.00;;
73951;SDS011;62304;47.662;18.324;2022-08-05T13:43:11;4.93;;;3.90;;
73951;SDS011;62304;47.662;18.324;2022-08-05T13:46:24;4.93;;;4.00;;
73951;SDS011;62304;47.662;18.324;2022-08-05T13:49:49;5.03;;;4.28;;
73951;SDS011;62304;47.662;18.324;2022-08-05T13:52:54;7.55;;;4.15;;
73951;SDS011;62304;47.662;18.324;2022-08-05T13:55:57;7.32;;;4.30;;
73951;SDS011;62304;47.662;18.324;2022-08-05T13:59:03;7.87;;;4.20;;
73951;SDS011;62304;47.662;18.324;2022-08-05T14:02:20;6.83;;;3.67;;
73951;SDS011;62304;47.662;18.324;2022-08-05T14:05:30;5.12;;;3.87;;
73951;SDS011;62304;47.662;18.324;2022-08-05T14:08:53;6.40;;;4.00;;
73951;SDS011;62304;47.662;18.324;2022-08-05T14:12:00;6.75;;;4.28;;
73951;SDS011;62304;47.662;18.324;2022-08-05T14:15:19;5.20;;;3.93;;
73951;SDS011;62304;47.662;18.324;2022-08-05T14:18:42;6.47;;;4.10;;
73951;SDS011;62304;47.662;18.324;2022-08-05T14:21:46;5.12;;;4.10;;
73951;SDS011;62304;47.662;18.324;2022-08-05T14:25:10;9.25;;;4.40;;
73951;SDS011;62304;47.662;18.324;2022-08-05T14:28:23;5.95;;;4.30;;
73951;SDS011;62304;47.662;18.324;2022-08-05T14:31:29;6.60;;;3.63;;
73951;SDS011;62304;47.662;18.324;2022-08-05T14:34:52;5.00;;;4.27;;
73951;SDS011;62304;47.662;18.324;2022-08-05T14:37:55;5.78;;;4.22;;
73951;SDS011;62304;47.662;18.324;2022-08-05T14:41:03;7.12;;;4.00;;
73951;SDS011;62304;47.662;18.324;2022-08-05T14:44:09;6.57;;;3.95;;
73951;SDS011;62304;47.662;18.324;2022-08-05T14:47:23;4.90;;;4.10;;
73951;SDS011;62304;47.662;18.324;2022-08-05T14:50:46;5.90;;;3.67;;
73951;SDS011;62304;47.662;18.324;2022-08-05T14:53:50;9.75;;;3.62;;
73951;SDS011;62304;47.662;18.324;2022-08-05T14:57:13;9.00;;;4.43;;
73951;SDS011;62304;47.662;18.324;2022-08-05T15:00:18;6.55;;;3.58;;
73951;SDS011;62304;47.662;18.324;2022-08-05T15:03:21;5.73;;;3.70;;
73951;SDS011;62304;47.662;18.324;2022-08-05T15:06:26;6.07;;;3.37;;
73951;SDS011;62304;47.662;18.324;2022-08-05T15:09:31;5.00;;;4.00;;
73951;SDS011;62304;47.662;18.324;2022-08-05T15:12:55;5.12;;;3.47;;
73951;SDS011;62304;47.662;18.324;2022-08-05T15:16:05;5.70;;;3.70;;
73951;SDS011;62304;47.662;18.324;2022-08-05T15:19:14;6.80;;;3.43;;
73951;SDS011;62304;47.662;18.324;2022-08-05T15:22:25;6.10;;;3.67;;
73951;SDS011;62304;47.662;18.324;2022-08-05T15:25:29;6.53;;;3.65;;
73951;SDS011;62304;47.662;18.324;2022-08-05T15:28:52;5.68;;;3.35;;
73951;SDS011;62304;47.662;18.324;2022-08-05T15:31:55;5.85;;;3.80;;
73951;SDS011;62304;47.662;18.324;2022-08-05T15:35:04;5.63;;;3.50;;
73951;SDS011;62304;47.662;18.324;2022-08-05T15:38:13;5.90;;;3.70;;
73951;SDS011;62304;47.662;18.324;2022-08-05T15:41:38;8.52;;;4.03;;
73951;SDS011;62304;47.662;18.324;2022-08-05T15:45:00;6.30;;;3.65;;
73951;SDS011;62304;47.662;18.324;2022-08-05T15:48:03;6.53;;;3.75;;
73951;SDS011;62304;47.662;18.324;2022-08-05T15:51:08;6.37;;;3.87;;
73951;SDS011;62304;47.662;18.324;2022-08-05T15:54:12;5.27;;;3.80;;
73951;SDS011;62304;47.662;18.324;2022-08-05T15:57:16;8.60;;;4.25;;
73951;SDS011;62304;47.662;18.324;2022-08-05T16:00:20;6.47;;;3.40;;
73951;SDS011;62304;47.662;18.324;2022-08-05T16:03:43;6.22;;;3.70;;
73951;SDS011;62304;47.662;18.324;2022-08-05T16:06:52;4.40;;;3.90;;
73951;SDS011;62304;47.662;18.324;2022-08-05T16:09:57;6.33;;;3.63;;
73951;SDS011;62304;47.662;18.324;2022-08-05T16:13:00;6.20;;;3.45;;
73951;SDS011;62304;47.662;18.324;2022-08-05T16:16:06;6.97;;;3.60;;
73951;SDS011;62304;47.662;18.324;2022-08-05T16:19:12;5.12;;;3.55;;
73951;SDS011;62304;47.662;18.324;2022-08-05T16:22:35;5.90;;;3.90;;
73951;SDS011;62304;47.662;18.324;2022-08-05T16:25:38;5.77;;;3.77;;
73951;SDS011;62304;47.662;18.324;2022-08-05T16:28:42;8.05;;;3.80;;
73951;SDS011;62304;47.662;18.324;2022-08-05T16:31:46;5.75;;;3.72;;
73951;SDS011;62304;47.662;18.324;2022-08-05T16:35:00;5.07;;;3.70;;
73951;SDS011;62304;47.662;18.324;2022-08-05T16:38:03;5.07;;;3.50;;
73951;SDS011;62304;47.662;18.324;2022-08-05T16:41:26;6.07;;;3.40;;
73951;SDS011;62304;47.662;18.324;2022-08-05T16:44:49;6.62;;;3.60;;
73951;SDS011;62304;47.662;18.324;2022-08-05T16:47:58;5.40;;;3.58;;
73951;SDS011;62304;47.662;18.324;2022-08-05T16:51:04;4.90;;;3.80;;
73951;SDS011;62304;47.662;18.324;2022-08-05T16:54:11;4.63;;;3.60;;
73951;SDS011;62304;47.662;18.324;2022-08-05T16:57:28;7.37;;;3.70;;
73951;SDS011;62304;47.662;18.324;2022-08-05T17:00:51;6.07;;;3.90;;
73951;SDS011;62304;47.662;18.324;2022-08-05T17:03:54;5.57;;;3.95;;
73951;SDS011;62304;47.662;18.324;2022-08-05T17:06:57;7.57;;;3.85;;
73951;SDS011;62304;47.662;18.324;2022-08-05T17:10:12;6.70;;;4.10;;
73951;SDS011;62304;47.662;18.324;2022-08-05T17:13:15;6.33;;;4.00;;
73951;SDS011;62304;47.662;18.324;2022-08-05T17:16:37;7.03;;;3.95;;
73951;SDS011;62304;47.662;18.324;2022-08-05T17:19:41;5.97;;;4.25;;
73951;SDS011;62304;47.662;18.324;2022-08-05T17:22:48;7.97;;;4.15;;
73951;SDS011;62304;47.662;18.324;2022-08-05T17:25:59;5.07;;;3.60;;
73951;SDS011;62304;47.662;18.324;2022-08-05T17:29:03;7.90;;;4.00;;
73951;SDS011;62304;47.662;18.324;2022-08-05T17:32:11;7.30;;;4.60;;
73951;SDS011;62304;47.662;18.324;2022-08-05T17:35:18;8.20;;;7.35;;
73951;SDS011;62304;47.662;18.324;2022-08-05T17:38:22;12.40;;;5.53;;
73951;SDS011;62304;47.662;18.324;2022-08-05T17:41:25;8.60;;;5.47;;
73951;SDS011;62304;47.662;18.324;2022-08-05T17:44:50;10.43;;;4.60;;
73951;SDS011;62304;47.662;18.324;2022-08-05T17:47:53;10.88;;;4.85;;
73951;SDS011;62304;47.662;18.324;2022-08-05T17:50:57;8.20;;;4.60;;
73951;SDS011;62304;47.662;18.324;2022-08-05T17:54:02;6.80;;;4.20;;
73951;SDS011;62304;47.662;18.324;2022-08-05T17:57:05;7.23;;;4.30;;
73951;SDS011;62304;47.662;18.324;2022-08-05T18:00:13;8.33;;;4.30;;
73951;SDS011;62304;47.662;18.324;2022-08-05T18:03:16;7.93;;;4.40;;
73951;SDS011;62304;47.662;18.324;2022-08-05T18:06:40;21.08;;;5.40;;
73951;SDS011;62304;47.662;18.324;2022-08-05T18:09:47;13.05;;;5.22;;
73951;SDS011;62304;47.662;18.324;2022-08-05T18:13:01;9.60;;;4.30;;
73951;SDS011;62304;47.662;18.324;2022-08-05T18:16:13;11.47;;;5.00;;
73951;SDS011;62304;47.662;18.324;2022-08-05T18:19:21;12.13;;;4.62;;
73951;SDS011;62304;47.662;18.324;2022-08-05T18:22:27;12.35;;;4.50;;
73951;SDS011;62304;47.662;18.324;2022-08-05T18:25:51;14.90;;;4.97;;
73951;SDS011;62304;47.662;18.324;2022-08-05T18:29:00;17.43;;;4.90;;
73951;SDS011;62304;47.662;18.324;2022-08-05T18:32:03;13.07;;;4.40;;
73951;SDS011;62304;47.662;18.324;2022-08-05T18:35:07;12.45;;;4.78;;
73951;SDS011;62304;47.662;18.324;2022-08-05T18:38:12;14.13;;;4.90;;
73951;SDS011;62304;47.662;18.324;2022-08-05T18:41:20;7.65;;;4.30;;
73951;SDS011;62304;47.662;18.324;2022-08-05T18:44:43;13.03;;;4.60;;
73951;SDS011;62304;47.662;18.324;2022-08-05T18:47:57;10.90;;;4.87;;
73951;SDS011;62304;47.662;18.324;2022-08-05T18:51:00;9.70;;;5.15;;
73951;SDS011;62304;47.662;18.324;2022-08-05T18:54:42;15.43;;;5.12;;
73951;SDS011;62304;47.662;18.324;2022-08-05T18:57:47;10.70;;;5.03;;
73951;SDS011;62304;47.662;18.324;2022-08-05T19:00:55;8.77;;;5.10;;
73951;SDS011;62304;47.662;18.324;2022-08-05T19:04:02;12.20;;;5.10;;
73951;SDS011;62304;47.662;18.324;2022-08-05T19:07:07;13.35;;;5.37;;
73951;SDS011;62304;47.662;18.324;2022-08-05T19:10:10;11.00;;;5.43;;
73951;SDS011;62304;47.662;18.324;2022-08-05T19:13:13;11.18;;;5.40;;
73951;SDS011;62304;47.662;18.324;2022-08-05T19:16:17;11.47;;;5.27;;
73951;SDS011;62304;47.662;18.324;2022-08-05T19:19:30;14.93;;;4.90;;
73951;SDS011;62304;47.662;18.324;2022-08-05T19:22:35;15.10;;;4.93;;
73951;SDS011;62304;47.662;18.324;2022-08-05T19:25:44;13.25;;;4.80;;
73951;SDS011;62304;47.662;18.324;2022-08-05T19:28:50;14.90;;;4.95;;
73951;SDS011;62304;47.662;18.324;2022-08-05T19:31:54;18.03;;;5.63;;
73951;SDS011;62304;47.662;18.324;2022-08-05T19:34:58;17.53;;;5.20;;